Time;durP1;ratioP1;P1;durP2;ratioP2;P2;SDS_P1;SDS_P2;PMS_P1;PMS_P2;Temp;Humidity;BMP_temperature;BMP_pressure;BME280_temperature;BME280_humidity;BME280_pressure;Samples;Min_cycle;Max_cycle;Signal;HPM_P1;HPM_P2
2022/10/09 00:01:20;;;;;;;2.95;1.88;;;;;;;10.78;78.92;99654.59;5070773;28;20580;-49
2022/10/09 00:03:47;;;;;;;5.88;2.30;;;;;;;10.80;79.16;99665.78;5067445;28;20056;-50
2022/10/09 00:06:18;;;;;;;2.88;1.75;;;;;;;10.83;79.54;99662.25;5067507;28;20420;-50
2022/10/09 00:08:44;;;;;;;5.60;2.55;;;;;;;10.80;79.29;99658.00;5069687;28;20039;-50
2022/10/09 00:11:16;;;;;;;9.13;2.75;;;;;;;10.79;79.51;99648.47;5069575;28;20516;-49
2022/10/09 00:13:42;;;;;;;5.07;2.38;;;;;;;10.78;79.31;99651.97;5052245;28;20044;-54
2022/10/09 00:16:10;;;;;;;7.40;2.58;;;;;;;10.74;79.86;99646.94;5070513;28;20054;-53
2022/10/09 00:18:37;;;;;;;9.32;2.47;;;;;;;10.71;79.65;99650.53;5069065;28;20048;-49
2022/10/09 00:21:03;;;;;;;5.65;2.00;;;;;;;10.71;80.07;99654.88;5068433;28;20638;-51
2022/10/09 00:23:31;;;;;;;4.40;2.40;;;;;;;10.44;80.40;99610.75;5065878;28;20036;-51
2022/10/09 00:25:59;;;;;;;6.93;3.00;;;;;;;10.48;80.29;99604.53;5065497;28;20040;-52
2022/10/09 00:28:29;;;;;;;10.40;3.35;;;;;;;10.70;80.71;99635.81;5067192;28;20037;-50
2022/10/09 00:30:56;;;;;;;4.43;2.20;;;;;;;10.72;80.57;99639.22;5067150;28;20047;-52
2022/10/09 00:33:22;;;;;;;5.85;2.28;;;;;;;10.73;80.24;99630.50;5067615;28;20089;-50
2022/10/09 00:35:48;;;;;;;7.35;2.72;;;;;;;10.60;80.21;99608.44;5049358;28;20033;-50
2022/10/09 00:38:14;;;;;;;6.25;2.42;;;;;;;10.53;79.82;99592.22;5068691;28;20044;-49
2022/10/09 00:40:42;;;;;;;5.27;2.30;;;;;;;10.73;80.08;99625.28;5069734;28;20114;-51
2022/10/09 00:43:18;;;;;;;7.03;2.45;;;;;;;10.72;80.51;99621.03;5068059;28;20048;-50
2022/10/09 00:45:48;;;;;;;5.68;2.13;;;;;;;10.71;80.88;99615.88;5068726;28;20036;-51
2022/10/09 00:48:15;;;;;;;6.63;2.45;;;;;;;10.68;80.61;99621.19;5066351;28;20041;-51
2022/10/09 00:50:47;;;;;;;3.22;2.20;;;;;;;10.65;80.92;99619.53;5057058;28;20131;-51
2022/10/09 00:53:15;;;;;;;3.80;2.13;;;;;;;10.62;80.78;99611.84;5052253;28;20052;-50
2022/10/09 00:55:42;;;;;;;4.40;1.90;;;;;;;10.59;80.99;99620.59;5052155;28;20040;-54
2022/10/09 00:58:08;;;;;;;3.80;1.85;;;;;;;10.56;81.49;99610.31;5066978;28;20093;-57
2022/10/09 01:00:34;;;;;;;8.98;1.83;;;;;;;10.41;81.71;99589.22;5052077;28;20201;-51
2022/10/09 01:03:01;;;;;;;5.65;2.60;;;;;;;10.50;82.23;99609.69;5069411;28;20036;-50
2022/10/09 01:05:41;;;;;;;;;;;;;;;10.46;82.41;99614.16;5069169;28;20041;-54
2022/10/09 01:08:15;;;;;;;7.22;2.55;;;;;;;10.35;82.95;99597.22;5067675;28;20057;-52
2022/10/09 01:11:03;;;;;;;6.10;2.72;;;;;;;10.38;82.71;99621.34;5069664;28;20071;-52
2022/10/09 01:13:37;;;;;;;10.80;2.30;;;;;;;10.30;83.11;99607.78;5064404;28;20036;-51
2022/10/09 01:16:11;;;;;;;7.18;2.28;;;;;;;10.35;83.02;99611.06;5066944;28;20407;-54
2022/10/09 01:18:47;;;;;;;4.55;2.28;;;;;;;10.35;83.85;99618.00;5068018;28;20051;-50
2022/10/09 01:21:20;;;;;;;6.30;2.50;;;;;;;10.32;83.61;99616.34;5049242;28;20033;-50
2022/10/09 01:23:48;;;;;;;5.70;2.60;;;;;;;10.31;84.32;99611.22;5066927;28;20118;-50
2022/10/09 01:26:24;;;;;;;8.20;2.17;;;;;;;10.30;83.90;99612.13;5069157;28;20068;-52
2022/10/09 01:28:55;;;;;;;5.90;2.08;;;;;;;10.30;84.31;99612.13;5067099;28;20028;-50
2022/10/09 01:31:23;;;;;;;8.23;2.40;;;;;;;10.28;84.58;99604.38;5067425;28;20060;-54
2022/10/09 01:33:49;;;;;;;7.47;2.58;;;;;;;10.09;84.08;99580.75;5067976;28;20079;-54
2022/10/09 01:36:17;;;;;;;4.03;1.90;;;;;;;10.20;84.06;99590.81;5068147;28;20119;-48
2022/10/09 01:38:43;;;;;;;4.72;1.98;;;;;;;10.28;84.60;99606.97;5069163;28;20040;-52
2022/10/09 01:41:09;;;;;;;5.93;1.98;;;;;;;10.28;84.59;99604.38;5068297;28;20135;-52
2022/10/09 01:43:35;;;;;;;7.70;2.80;;;;;;;10.27;84.56;99601.81;5068700;28;20036;-51
2022/10/09 01:46:21;;;;;;;8.40;2.13;;;;;;;10.25;85.17;99590.66;5069067;28;20051;-54
2022/10/09 01:49:12;;;;;;;7.70;2.42;;;;;;;10.23;85.11;99595.88;5073173;28;20044;-55
2022/10/09 01:52:05;;;;;;;7.75;1.88;;;;;;;9.83;84.64;99535.78;5072396;28;20049;-51
2022/10/09 01:54:42;;;;;;;4.05;2.03;;;;;;;9.81;84.89;99545.38;5056128;28;20526;-51
2022/10/09 01:57:09;;;;;;;4.50;1.80;;;;;;;10.15;85.07;99592.69;5070953;28;20135;-52
2022/10/09 01:59:41;;;;;;;4.70;2.17;;;;;;;10.13;85.34;99590.13;5070907;28;20029;-52
2022/10/09 02:02:07;;;;;;;5.53;1.63;;;;;;;10.12;85.36;99588.44;5069032;28;20044;-53
2022/10/09 02:04:35;;;;;;;6.00;2.35;;;;;;;10.08;85.41;99586.84;5071492;28;20585;-50
2022/10/09 02:07:01;;;;;;;3.25;1.90;;;;;;;10.06;85.47;99587.78;5054966;28;20068;-49
2022/10/09 02:09:27;;;;;;;6.90;2.35;;;;;;;10.07;85.93;99582.53;5072886;28;20087;-54
2022/10/09 02:11:56;;;;;;;7.50;2.40;;;;;;;10.07;85.49;99597.28;5071457;28;20040;-52
2022/10/09 02:14:22;;;;;;;;;;;;;;;10.07;85.68;99589.47;5071531;28;20040;-52
2022/10/09 02:17:20;;;;;;;4.53;2.30;;;;;;;10.00;86.02;99595.78;5071758;28;19920;-51
2022/10/09 02:19:53;;;;;;;4.50;2.00;;;;;;;9.96;86.54;99589.00;5070280;28;20044;-50
2022/10/09 02:22:23;;;;;;;3.72;2.17;;;;;;;9.96;86.55;99592.44;5071450;28;20040;-52
2022/10/09 02:24:49;;;;;;;8.02;2.67;;;;;;;9.74;86.51;99549.91;5070888;28;20466;-49
2022/10/09 02:27:18;;;;;;;4.53;2.38;;;;;;;9.93;86.50;99582.16;5072412;28;20048;-52
2022/10/09 02:29:44;;;;;;;6.43;2.30;;;;;;;9.93;87.10;99581.31;5054209;28;20529;-50
2022/10/09 02:32:10;;;;;;;9.07;2.35;;;;;;;9.93;87.07;99586.50;5053062;28;20040;-51
2022/10/09 02:34:36;;;;;;;5.13;1.90;;;;;;;9.86;87.52;99575.47;5070675;28;20535;-51
2022/10/09 02:37:02;;;;;;;8.18;2.67;;;;;;;9.88;87.19;99563.28;5070131;28;20154;-48
2022/10/09 02:39:28;;;;;;;6.97;2.25;;;;;;;9.96;86.64;99570.81;5071479;28;20036;-53
2022/10/09 02:41:54;;;;;;;5.78;2.05;;;;;;;9.93;87.59;99565.72;5088035;28;20059;-48
2022/10/09 02:44:20;;;;;;;9.43;2.60;;;;;;;9.98;86.91;99569.88;5071651;28;20046;-49
2022/10/09 02:46:46;;;;;;;10.48;2.70;;;;;;;10.02;86.75;99570.59;5068820;28;20135;-48
2022/10/09 02:49:12;;;;;;;7.65;2.53;;;;;;;10.02;86.54;99561.06;5086862;28;20829;-52
2022/10/09 02:51:38;;;;;;;6.53;2.50;;;;;;;9.75;86.62;99523.03;5070746;28;20038;-51
2022/10/09 02:54:04;;;;;;;7.78;2.20;;;;;;;10.05;86.44;99563.56;5070211;28;20082;-49
2022/10/09 02:56:29;;;;;;;13.23;2.97;;;;;;;9.88;86.55;99537.34;5071336;28;20059;-49
2022/10/09 02:58:55;;;;;;;3.45;1.90;;;;;;;10.06;86.43;99559.22;5071765;28;20051;-51
2022/10/09 03:01:21;;;;;;;7.82;2.10;;;;;;;10.05;86.32;99563.56;5057429;28;20036;-52
2022/10/09 03:03:47;;;;;;;9.80;2.38;;;;;;;10.02;86.54;99545.50;5070614;28;20051;-55
2022/10/09 03:06:19;;;;;;;9.10;2.42;;;;;;;10.04;86.41;99550.63;5070886;28;20420;-53
2022/10/09 03:08:47;;;;;;;6.80;2.17;;;;;;;10.05;86.69;99560.97;5071657;28;20064;-56
2022/10/09 03:11:15;;;;;;;4.35;2.13;;;;;;;10.02;86.43;99552.44;5071546;28;20091;-48
2022/10/09 03:13:41;;;;;;;6.45;2.38;;;;;;;10.01;85.94;99546.38;5069676;28;20426;-48
2022/10/09 03:16:18;;;;;;;4.45;2.22;;;;;;;10.00;85.90;99539.50;5070370;28;20125;-51
2022/10/09 03:18:45;;;;;;;8.40;2.40;;;;;;;9.99;86.27;99550.81;5069321;28;20072;-50
2022/10/09 03:21:14;;;;;;;5.68;2.47;;;;;;;9.98;86.75;99546.50;5071237;28;20109;-48
2022/10/09 03:23:40;;;;;;;5.97;2.47;;;;;;;9.96;85.96;99537.91;5053303;28;20055;-53
2022/10/09 03:26:08;;;;;;;6.40;2.10;;;;;;;9.93;86.45;99534.56;5070738;28;20048;-52
2022/10/09 03:28:35;;;;;;;8.98;2.30;;;;;;;9.97;86.40;99544.78;5071307;28;20037;-51
2022/10/09 03:31:02;;;;;;;7.07;2.10;;;;;;;9.99;85.87;99536.97;5071377;28;20173;-52
2022/10/09 03:33:28;;;;;;;6.65;2.38;;;;;;;9.97;86.60;99529.22;5068511;28;20040;-52
2022/10/09 03:35:54;;;;;;;7.72;2.30;;;;;;;9.97;86.44;99531.81;5069864;28;20052;-49
2022/10/09 03:38:20;;;;;;;4.82;1.98;;;;;;;9.72;86.42;99484.22;5070018;28;20033;-52
2022/10/09 03:40:46;;;;;;;4.78;2.00;;;;;;;9.97;85.75;99525.78;5071141;28;20435;-52
2022/10/09 03:43:12;;;;;;;7.88;2.10;;;;;;;9.98;86.47;99519.69;5070672;28;20423;-49
2022/10/09 03:45:39;;;;;;;6.72;2.42;;;;;;;9.79;85.94;99490.88;5068887;28;20401;-52
2022/10/09 03:48:06;;;;;;;5.85;2.42;;;;;;;9.98;85.69;99523.13;5052256;28;20695;-49
2022/10/09 03:50:31;;;;;;;5.35;2.10;;;;;;;9.99;85.37;99518.78;5070521;28;20105;-51
2022/10/09 03:52:59;;;;;;;7.82;2.13;;;;;;;9.92;85.25;99496.50;5069441;28;20086;-51
2022/10/09 03:55:27;;;;;;;5.43;2.10;;;;;;;9.98;85.73;99511.88;5068386;28;20048;-50
2022/10/09 03:57:53;;;;;;;6.90;2.38;;;;;;;9.97;85.63;99508.44;5070814;28;20040;-52
2022/10/09 04:00:19;;;;;;;13.18;2.33;;;;;;;9.96;85.33;99506.75;5070570;28;20102;-47
2022/10/09 04:02:45;;;;;;;6.90;2.70;;;;;;;9.95;85.18;99499.84;5086247;28;20068;-53
2022/10/09 04:05:11;;;;;;;5.43;2.20;;;;;;;9.98;85.10;99496.31;5067657;28;20075;-49
2022/10/09 04:07:37;;;;;;;6.80;2.15;;;;;;;9.98;85.09;99494.56;5080049;28;20032;-51
2022/10/09 04:10:04;;;;;;;3.88;2.03;;;;;;;10.00;84.47;99504.88;5073882;28;20500;-51
2022/10/09 04:12:29;;;;;;;5.07;2.17;;;;;;;10.01;84.59;99501.38;5070564;28;20040;-52
2022/10/09 04:14:55;;;;;;;9.63;2.35;;;;;;;9.94;84.50;99495.56;5069091;28;20101;-50
2022/10/09 04:17:21;;;;;;;8.52;2.30;;;;;;;9.99;84.79;99487.63;5070304;28;20044;-50
2022/10/09 04:19:48;;;;;;;7.57;2.15;;;;;;;9.99;84.31;99492.81;5068700;28;20040;-54
2022/10/09 04:22:13;;;;;;;5.22;2.45;;;;;;;10.00;84.14;99482.34;5069136;28;20044;-52
2022/10/09 04:24:39;;;;;;;6.90;2.00;;;;;;;9.83;84.14;99447.50;5069952;28;20094;-48
2022/10/09 04:27:05;;;;;;;4.53;2.25;;;;;;;10.06;83.73;99478.69;5067293;28;20076;-50
2022/10/09 04:29:31;;;;;;;7.22;2.40;;;;;;;10.05;83.91;99474.38;5069660;28;20047;-47
2022/10/09 04:31:56;;;;;;;5.82;2.70;;;;;;;10.09;83.61;99468.22;5052123;28;20063;-49
2022/10/09 04:34:22;;;;;;;9.75;2.40;;;;;;;10.11;82.92;99474.19;5068400;28;20091;-48
2022/10/09 04:36:48;;;;;;;6.78;2.25;;;;;;;10.11;82.97;99466.38;5066421;28;20052;-50
2022/10/09 04:39:16;;;;;;;6.38;2.25;;;;;;;10.15;83.04;99471.41;5069972;28;20044;-52
2022/10/09 04:41:42;;;;;;;8.52;2.97;;;;;;;10.03;82.64;99435.50;5048447;28;20121;-49
2022/10/09 04:44:08;;;;;;;3.65;2.15;;;;;;;10.03;82.28;99417.34;5068820;28;20040;-51
2022/10/09 04:46:34;;;;;;;9.85;2.55;;;;;;;10.30;81.64;99459.66;5069200;28;20047;-50
2022/10/09 04:49:00;;;;;;;7.13;2.67;;;;;;;10.09;81.41;99409.31;5041423;28;20037;-53
2022/10/09 04:51:26;;;;;;;5.40;2.70;;;;;;;10.15;81.66;99422.06;5065275;28;20094;-51
2022/10/09 04:53:54;;;;;;;9.93;2.55;;;;;;;10.37;81.10;99449.88;5063082;28;20037;-52
2022/10/09 04:56:21;;;;;;;6.70;2.72;;;;;;;10.07;80.68;99398.13;5067515;28;20458;-53
2022/10/09 04:58:48;;;;;;;5.68;2.65;;;;;;;10.50;80.40;99443.31;5068502;28;20500;-50
2022/10/09 05:01:25;;;;;;;8.32;3.10;;;;;;;10.62;79.57;99451.50;5067588;28;20055;-51
2022/10/09 05:03:52;;;;;;;5.85;2.83;;;;;;;10.75;79.30;99445.81;5069264;28;20113;-51
2022/10/09 05:06:19;;;;;;;8.55;3.05;;;;;;;10.83;78.70;99430.78;5068352;28;20048;-54
2022/10/09 05:08:45;;;;;;;8.00;3.10;;;;;;;10.91;78.68;99434.78;5068282;28;20024;-53
2022/10/09 05:11:12;;;;;;;7.47;2.45;;;;;;;11.02;77.82;99444.75;5068706;28;20044;-48
2022/10/09 05:13:44;;;;;;;7.72;2.65;;;;;;;11.13;77.22;99434.75;5067965;28;20427;-52
2022/10/09 05:16:13;;;;;;;5.45;2.63;;;;;;;11.05;76.57;99395.19;5067505;28;20051;-50
2022/10/09 05:18:46;;;;;;;6.85;2.90;;;;;;;11.63;75.31;99442.22;5069659;28;20047;-52
2022/10/09 05:21:16;;;;;;;6.53;2.28;;;;;;;11.78;74.29;99447.66;5069404;28;20499;-51
2022/10/09 05:23:42;;;;;;;5.15;2.53;;;;;;;11.96;73.03;99453.84;5067632;28;20123;-49
2022/10/09 05:26:11;;;;;;;6.10;2.35;;;;;;;11.99;72.34;99424.19;5068964;28;20135;-51
2022/10/09 05:28:36;;;;;;;4.93;2.25;;;;;;;12.18;71.28;99458.94;5067781;28;20052;-52
2022/10/09 05:31:04;;;;;;;7.53;2.65;;;;;;;12.05;70.93;99436.94;5067597;28;20040;-50
2022/10/09 05:33:30;;;;;;;7.53;2.53;;;;;;;12.37;70.65;99466.78;5067525;28;20085;-49
2022/10/09 05:35:57;;;;;;;4.78;2.60;;;;;;;12.66;69.08;99475.00;5068521;28;20476;-52
2022/10/09 05:38:24;;;;;;;6.75;2.50;;;;;;;13.04;68.08;99474.94;5069132;28;20040;-53
2022/10/09 05:41:01;;;;;;;5.43;2.75;;;;;;;13.44;66.63;99471.28;5066143;28;20041;-52
2022/10/09 05:43:37;;;;;;;6.80;2.63;;;;;;;13.47;65.62;99477.19;5068102;28;20040;-52
2022/10/09 05:46:08;;;;;;;5.80;2.53;;;;;;;13.52;65.10;99475.19;5050125;28;20606;-52
2022/10/09 05:49:04;;;;;;;6.28;2.50;;;;;;;13.53;64.68;99469.06;5069014;28;20119;-50
2022/10/09 05:51:31;;;;;;;9.75;2.72;;;;;;;13.70;64.00;99454.31;5069139;28;20561;-52
2022/10/09 05:53:58;;;;;;;8.20;2.30;;;;;;;13.56;63.67;99468.91;5033396;28;20427;-54
2022/10/09 05:56:32;;;;;;;13.38;3.03;;;;;;;13.40;64.02;99457.50;5068591;28;20105;-50
2022/10/09 05:59:03;;;;;;;16.20;3.25;;;;;;;13.60;64.08;99456.53;5068301;28;20044;-52
2022/10/09 06:01:32;;;;;;;16.30;2.70;;;;;;;13.71;63.37;99451.59;5066924;28;20098;-47
2022/10/09 06:03:59;;;;;;;7.43;2.43;;;;;;;14.22;62.56;99455.91;5065786;28;20040;-50
2022/10/09 06:06:29;;;;;;;5.72;2.72;;;;;;;14.44;61.81;99452.19;5067791;28;20749;-52
2022/10/09 06:08:55;;;;;;;4.03;2.30;;;;;;;14.86;60.33;99456.88;5066602;28;20051;-54
2022/10/09 06:11:23;;;;;;;8.95;2.63;;;;;;;15.67;58.59;99453.94;5069002;28;20847;-50
2022/10/09 06:13:50;;;;;;;5.97;2.42;;;;;;;16.53;56.83;99446.03;5066275;28;20036;-50
2022/10/09 06:16:17;;;;;;;5.22;2.25;;;;;;;16.65;55.42;99454.94;5068654;28;20504;-53
2022/10/09 06:18:45;;;;;;;6.55;2.80;;;;;;;16.18;55.50;99451.75;5067109;28;20033;-50
2022/10/09 06:21:12;;;;;;;10.32;2.53;;;;;;;16.28;55.63;99445.00;5067584;28;20131;-52
2022/10/09 06:23:38;;;;;;;5.97;2.80;;;;;;;16.25;55.65;99443.41;5067336;28;20040;-52
2022/10/09 06:26:10;;;;;;;6.47;2.40;;;;;;;16.32;54.85;99444.75;5084388;28;20048;-53
2022/10/09 06:28:36;;;;;;;7.03;2.58;;;;;;;16.36;54.37;99433.13;5067587;28;20040;-53
2022/10/09 06:31:14;;;;;;;9.27;2.88;;;;;;;16.72;53.43;99432.63;5066912;28;20041;-51
2022/10/09 06:33:42;;;;;;;10.77;2.90;;;;;;;17.15;52.81;99430.69;5054160;28;20089;-52
2022/10/09 06:36:19;;;;;;;4.93;2.47;;;;;;;17.15;52.19;99429.84;5064776;28;20040;-53
2022/10/09 06:38:48;;;;;;;8.73;2.70;;;;;;;17.18;52.19;99425.22;5052317;28;20041;-49
2022/10/09 06:41:23;;;;;;;7.78;2.42;;;;;;;17.52;51.14;99436.16;5074610;28;20045;-49
2022/10/09 06:43:58;;;;;;;11.90;2.58;;;;;;;17.64;50.88;99430.09;5054482;28;20045;-54
2022/10/09 06:46:35;;;;;;;9.02;2.63;;;;;;;18.04;49.80;99420.34;5052525;28;20059;-52
2022/10/09 06:49:02;;;;;;;6.38;2.20;;;;;;;18.07;49.22;99391.19;5057928;28;20028;-51
2022/10/09 06:51:28;;;;;;;12.05;3.05;;;;;;;18.43;48.81;99422.81;5069027;28;20415;-51
2022/10/09 06:53:57;;;;;;;8.05;2.72;;;;;;;18.39;48.39;99418.72;5070819;28;20419;-51
2022/10/09 06:56:24;;;;;;;5.95;2.65;;;;;;;18.57;48.25;99420.09;5070756;28;20491;-51
2022/10/09 06:58:50;;;;;;;6.82;2.50;;;;;;;18.55;47.72;99416.72;5072088;28;20410;-49
2022/10/09 07:01:19;;;;;;;6.28;2.80;;;;;;;19.39;46.52;99414.03;5069512;28;20044;-51
2022/10/09 07:03:47;;;;;;;7.68;2.70;;;;;;;19.39;45.85;99414.03;5071866;28;20131;-52
2022/10/09 07:06:19;;;;;;;6.25;2.78;;;;;;;19.76;45.25;99413.94;5070504;28;20044;-52
2022/10/09 07:08:47;;;;;;;6.53;2.75;;;;;;;20.27;44.22;99416.97;5070161;28;20059;-52
2022/10/09 07:11:14;;;;;;;7.03;2.60;;;;;;;20.69;43.71;99410.97;5069606;28;20101;-53
2022/10/09 07:13:43;;;;;;;6.30;2.75;;;;;;;20.45;43.35;99410.28;5071719;28;20044;-49
2022/10/09 07:16:10;;;;;;;4.82;2.55;;;;;;;20.18;43.83;99402.69;5071043;28;20067;-52
2022/10/09 07:18:36;;;;;;;7.72;3.05;;;;;;;19.78;44.16;99396.19;5069087;28;20039;-52
2022/10/09 07:21:03;;;;;;;7.75;2.92;;;;;;;19.58;44.16;99394.22;5071405;28;20047;-50
2022/10/09 07:23:30;;;;;;;8.32;2.95;;;;;;;19.72;44.39;99391.38;5068228;28;20036;-51
2022/10/09 07:25:57;;;;;;;5.88;2.58;;;;;;;19.99;43.70;99384.00;5070658;28;20439;-51
2022/10/09 07:28:24;;;;;;;9.82;3.00;;;;;;;20.41;43.00;99386.88;5068574;28;20041;-51
2022/10/09 07:30:50;;;;;;;9.40;2.97;;;;;;;20.93;42.01;99372.94;5068213;28;20036;-49
2022/10/09 07:33:16;;;;;;;9.07;2.65;;;;;;;21.48;41.49;99372.72;5071616;28;20046;-50
2022/10/09 07:35:42;;;;;;;8.60;2.60;;;;;;;21.85;40.51;99381.03;5074167;28;20061;-53
2022/10/09 07:38:08;;;;;;;6.50;2.72;;;;;;;21.60;40.14;99373.50;5068867;28;20048;-50
2022/10/09 07:40:34;;;;;;;7.97;2.80;;;;;;;22.30;39.12;99365.63;5069890;28;20036;-51
2022/10/09 07:43:00;;;;;;;7.15;2.85;;;;;;;23.17;38.11;99379.91;5067964;28;20063;-49
2022/10/09 07:45:26;;;;;;;6.97;3.38;;;;;;;23.30;37.22;99392.03;5069173;28;20528;-50
2022/10/09 07:47:52;;;;;;;6.55;2.63;;;;;;;23.02;36.99;99383.94;5067693;28;20040;-53
2022/10/09 07:50:20;;;;;;;4.97;2.25;;;;;;;22.68;37.23;99372.84;5071067;28;20033;-55
2022/10/09 07:52:48;;;;;;;7.50;2.63;;;;;;;22.69;37.46;99384.28;5067548;28;20043;-50
2022/10/09 07:55:14;;;;;;;5.00;2.55;;;;;;;22.90;36.81;99382.41;5068095;28;20041;-53
2022/10/09 07:57:43;;;;;;;6.28;2.42;;;;;;;23.00;36.40;99379.75;5070148;28;20174;-52
2022/10/09 08:00:10;;;;;;;5.65;2.45;;;;;;;23.47;36.01;99383.41;5070657;28;20127;-55
2022/10/09 08:02:38;;;;;;;7.15;2.50;;;;;;;24.38;34.83;99383.56;5064828;28;20040;-52
2022/10/09 08:05:04;;;;;;;6.68;2.40;;;;;;;24.40;34.34;99365.66;5068759;28;20127;-56
2022/10/09 08:07:30;;;;;;;4.72;2.45;;;;;;;23.99;34.34;99387.31;5059184;28;20068;-51
2022/10/09 08:09:56;;;;;;;7.40;3.10;;;;;;;23.39;35.06;99362.03;5069014;28;20063;-51
2022/10/09 08:12:22;;;;;;;5.47;2.20;;;;;;;23.32;35.21;99379.47;5069447;28;20077;-48
2022/10/09 08:14:47;;;;;;;6.97;2.38;;;;;;;23.23;35.37;99381.16;5069480;28;20081;-52
2022/10/09 08:17:14;;;;;;;5.00;2.20;;;;;;;23.33;34.76;99373.19;5070371;28;20158;-53
2022/10/09 08:19:40;;;;;;;6.95;2.30;;;;;;;23.51;34.74;99382.97;5058542;28;20041;-52
2022/10/09 08:22:10;;;;;;;7.28;2.25;;;;;;;23.01;35.12;99369.00;5076145;28;20036;-52
2022/10/09 08:24:37;;;;;;;11.00;2.25;;;;;;;23.28;34.84;99336.47;5070034;28;20135;-51
2022/10/09 08:27:03;;;;;;;8.40;2.83;;;;;;;24.56;33.65;99367.66;5068550;28;20534;-53
2022/10/09 08:29:29;;;;;;;5.68;2.80;;;;;;;24.61;33.20;99359.22;5068251;28;20151;-52
2022/10/09 08:31:55;;;;;;;3.55;2.30;;;;;;;25.17;32.61;99374.97;5065975;28;20109;-53
2022/10/09 08:34:20;;;;;;;5.18;2.53;;;;;;;24.70;32.68;99361.84;5047748;28;20061;-55
2022/10/09 08:36:46;;;;;;;6.20;2.38;;;;;;;24.36;32.91;99387.34;5069405;28;20049;-51
2022/10/09 08:39:13;;;;;;;6.03;2.33;;;;;;;23.74;33.82;99366.72;5065821;28;20098;-49
2022/10/09 08:41:45;;;;;;;4.35;2.35;;;;;;;23.79;33.66;99357.34;5068266;28;20174;-53
2022/10/09 08:44:33;;;;;;;5.55;2.53;;;;;;;24.46;33.05;99359.75;5064098;28;20048;-52
2022/10/09 08:47:04;;;;;;;6.95;2.40;;;;;;;24.67;32.58;99355.97;5060291;28;20040;-53
2022/10/09 08:49:37;;;;;;;7.18;3.00;;;;;;;25.10;31.81;99361.44;5068100;28;20491;-56
2022/10/09 08:52:38;;;;;;;7.22;2.58;;;;;;;25.92;31.04;99350.38;5067990;28;20060;-50
2022/10/09 08:55:16;;;;;;;7.30;2.88;;;;;;;26.12;30.77;99349.16;5077985;28;20047;-53
2022/10/09 08:57:44;;;;;;;5.63;2.53;;;;;;;27.77;28.86;99353.63;5068596;28;20044;-50
2022/10/09 09:00:19;;;;;;;4.67;2.53;;;;;;;27.18;28.27;99317.44;5032257;28;20044;-53
2022/10/09 09:02:55;;;;;;;5.03;2.30;;;;;;;27.34;28.31;99346.81;5052300;28;20059;-51
2022/10/09 09:05:47;;;;;;;9.88;2.80;;;;;;;27.88;27.89;99350.59;5066590;28;20048;-54
2022/10/09 09:08:15;;;;;;;4.95;2.70;;;;;;;27.67;27.79;99343.16;5064366;28;20055;-52
2022/10/09 09:11:08;;;;;;;4.25;2.42;;;;;;;27.76;27.69;99343.94;5056875;28;20039;-57
2022/10/09 09:13:46;;;;;;;4.68;2.60;;;;;;;27.67;27.65;99345.81;5058950;28;20074;-51
2022/10/09 09:16:24;;;;;;;9.00;3.25;;;;;;;26.82;28.32;99336.41;5067913;28;20039;-51
2022/10/09 09:19:14;;;;;;;6.15;3.75;;;;;;;27.06;28.27;99340.97;5065925;28;20044;-54
2022/10/09 09:21:59;;;;;;;5.03;2.90;;;;;;;27.68;27.81;99334.13;5068743;28;20415;-54
2022/10/09 09:24:37;;;;;;;4.70;2.60;;;;;;;28.69;26.57;99330.72;5067506;28;20127;-56
2022/10/09 09:27:10;;;;;;;5.72;2.30;;;;;;;28.45;26.45;99337.03;5051208;28;20089;-52
2022/10/09 09:29:54;;;;;;;4.35;2.60;;;;;;;28.65;26.09;99322.22;5066874;28;20960;-51
2022/10/09 09:32:23;;;;;;;6.15;2.50;;;;;;;28.52;26.28;99321.97;5065090;28;20028;-51
2022/10/09 09:34:49;;;;;;;7.15;2.50;;;;;;;27.34;27.14;99296.09;5067575;28;20068;-54
2022/10/09 09:37:15;;;;;;;4.95;2.75;;;;;;;27.03;27.93;99316.44;5062906;28;20059;-52
2022/10/09 09:39:41;;;;;;;4.85;2.08;;;;;;;27.09;27.69;99302.44;5067640;28;20040;-57
2022/10/09 09:42:18;;;;;;;5.72;2.33;;;;;;;26.97;27.61;99310.78;5068510;28;20036;-56
2022/10/09 09:44:59;;;;;;;6.97;2.45;;;;;;;26.70;28.30;99307.53;5067253;28;20037;-53
2022/10/09 09:47:48;;;;;;;4.07;2.30;;;;;;;25.87;28.79;99307.41;5051503;28;20044;-50
2022/10/09 09:50:14;;;;;;;7.72;2.83;;;;;;;24.00;31.27;99312.81;5067693;28;20036;-56
2022/10/09 09:52:42;;;;;;;5.18;2.85;;;;;;;23.18;32.32;99311.78;5071365;28;20040;-54
2022/10/09 09:55:26;;;;;;;5.63;2.47;;;;;;;22.78;33.26;99314.56;5050747;28;20048;-56
2022/10/09 09:57:59;;;;;;;6.90;2.50;;;;;;;22.58;33.36;99311.03;5067866;28;20135;-53
2022/10/09 10:00:25;;;;;;;7.32;2.40;;;;;;;23.54;32.67;99316.34;5050791;28;20036;-55
2022/10/09 10:03:12;;;;;;;9.38;2.92;;;;;;;23.38;32.23;99309.94;5066764;28;20048;-54
2022/10/09 10:05:39;;;;;;;8.02;2.30;;;;;;;22.64;33.32;99299.06;5068683;28;20044;-55
2022/10/09 10:08:17;;;;;;;4.13;2.20;;;;;;;22.12;34.05;99287.81;5071132;28;20048;-55
2022/10/09 10:10:46;;;;;;;6.20;2.50;;;;;;;21.62;35.05;99309.84;5073144;28;20040;-55
2022/10/09 10:13:36;;;;;;;5.60;2.35;;;;;;;21.91;34.26;99287.84;5071844;28;20044;-50
2022/10/09 10:16:03;;;;;;;8.60;2.45;;;;;;;22.69;33.77;99308.25;5071536;28;20067;-57
2022/10/09 10:18:31;;;;;;;6.35;1.90;;;;;;;23.08;32.98;99310.97;5054719;28;22354;-53
2022/10/09 10:21:18;;;;;;;8.52;2.42;;;;;;;23.22;32.80;99307.84;5071777;28;20512;-57
2022/10/09 10:23:48;;;;;;;5.55;2.22;;;;;;;22.61;33.44;99302.78;5070755;28;20066;-56
2022/10/09 10:26:23;;;;;;;11.00;2.75;;;;;;;22.86;33.29;99292.69;5055027;28;20411;-55
2022/10/09 10:29:08;;;;;;;7.25;2.38;;;;;;;22.24;34.18;99299.94;5071049;28;20397;-55
2022/10/09 10:31:50;;;;;;;6.20;2.55;;;;;;;21.50;35.36;99293.25;5067912;28;20036;-53
2022/10/09 10:34:20;;;;;;;6.28;1.98;;;;;;;20.94;36.05;99266.25;5071010;28;20084;-53
2022/10/09 10:36:47;;;;;;;6.10;2.40;;;;;;;20.71;36.38;99263.72;5054731;28;20040;-53
2022/10/09 10:39:44;;;;;;;3.83;2.30;;;;;;;20.61;36.94;99289.22;5054065;28;20185;-54
2022/10/09 10:42:28;;;;;;;5.43;2.28;;;;;;;20.61;37.15;99283.94;5070531;28;20044;-57
2022/10/09 10:45:13;;;;;;;3.78;2.30;;;;;;;20.46;37.26;99279.91;5070155;28;20044;-53
2022/10/09 10:47:44;;;;;;;6.38;2.33;;;;;;;20.24;37.75;99272.03;5067921;28;20041;-49
2022/10/09 10:50:15;;;;;;;5.75;2.40;;;;;;;20.32;37.51;99279.34;5078655;28;20051;-57
2022/10/09 10:53:02;;;;;;;5.15;2.22;;;;;;;20.36;37.58;99289.53;5071031;28;20512;-52
2022/10/09 10:55:39;;;;;;;5.65;2.25;;;;;;;19.96;37.93;99254.06;5070908;28;20121;-56
2022/10/09 10:58:43;;;;;;;4.50;2.20;;;;;;;19.98;38.05;99281.19;5072086;28;20499;-55
2022/10/09 11:01:35;;;;;;;5.82;2.33;;;;;;;20.16;37.86;99271.78;5070792;28;20064;-55
2022/10/09 11:04:28;;;;;;;4.75;2.10;;;;;;;20.44;37.57;99276.56;5072080;28;20044;-52
2022/10/09 11:07:09;;;;;;;4.90;2.60;;;;;;;20.13;38.14;99272.88;5049568;28;20045;-51
2022/10/09 11:09:48;;;;;;;4.05;2.40;;;;;;;20.06;38.48;99263.75;5049107;28;20598;-54
2022/10/09 11:12:50;;;;;;;7.85;3.15;;;;;;;20.84;37.42;99263.53;5032451;28;20072;-56
2022/10/09 11:15:38;;;;;;;5.25;2.47;;;;;;;20.90;37.35;99262.19;5048754;28;20065;-54
2022/10/09 11:18:22;;;;;;;8.45;3.13;;;;;;;20.41;38.03;99265.41;5048956;28;20521;-51
2022/10/09 11:21:11;;;;;;;7.75;2.33;;;;;;;19.82;38.75;99276.28;5048990;28;20091;-55
2022/10/09 11:24:12;;;;;;;4.60;2.10;;;;;;;19.41;39.50;99287.38;5012877;28;20607;-57
2022/10/09 11:26:56;;;;;;;6.38;2.50;;;;;;;18.98;39.97;99277.47;5049362;28;20037;-53
2022/10/09 11:29:26;;;;;;;3.42;2.00;;;;;;;18.68;40.50;99313.16;5048947;28;20041;-55
2022/10/09 11:31:58;;;;;;;5.00;2.30;;;;;;;18.50;40.92;99286.31;5031901;28;20053;-54
2022/10/09 11:34:29;;;;;;;9.38;2.83;;;;;;;18.50;41.06;99275.78;5049078;28;20056;-57
2022/10/09 11:36:55;;;;;;;10.27;2.60;;;;;;;18.30;41.44;99290.41;5049050;28;20114;-54
2022/10/09 11:39:23;;;;;;;9.98;2.60;;;;;;;18.13;41.71;99285.50;5048793;28;20037;-51
2022/10/09 11:41:51;;;;;;;4.95;2.10;;;;;;;18.02;42.05;99267.88;5032376;28;20048;-53
2022/10/09 11:44:26;;;;;;;4.85;2.17;;;;;;;17.92;42.34;99277.38;5028372;28;20133;-53
2022/10/09 11:47:18;;;;;;;5.80;2.17;;;;;;;17.74;42.72;99273.41;5069964;28;20096;-51
2022/10/09 11:50:02;;;;;;;3.22;2.05;;;;;;;17.57;43.21;99271.94;5062673;28;20044;-50
2022/10/09 11:52:47;;;;;;;4.10;2.30;;;;;;;17.50;43.82;99289.06;5071223;28;20074;-51